createdAt,value
2017-11-06T00:00:56.991Z,99.99
2017-11-06T00:02:05.836Z,99.99
2017-11-06T00:03:14.678Z,99.99
2017-11-06T00:04:23.520Z,99.99
2017-11-06T00:05:32.364Z,99.99
2017-11-06T00:06:41.361Z,99.99
2017-11-06T00:07:50.201Z,99.99
2017-11-06T00:08:59.045Z,99.99
2017-11-06T00:10:07.885Z,99.99
2017-11-06T00:11:17.085Z,99.99
2017-11-06T00:12:26.128Z,99.99
2017-11-06T00:13:34.971Z,99.99
2017-11-06T00:14:43.818Z,99.99
2017-11-06T00:15:52.661Z,99.99
2017-11-06T00:17:01.506Z,99.99
2017-11-06T00:18:10.395Z,99.99
2017-11-06T00:19:19.238Z,99.99
2017-11-06T00:20:28.098Z,99.99
2017-11-06T00:21:36.921Z,99.99
2017-11-06T00:22:45.766Z,99.99
2017-11-06T00:23:55.104Z,99.99
2017-11-06T00:25:03.948Z,99.99
2017-11-06T00:26:12.792Z,99.99
2017-11-06T00:27:21.635Z,99.99
2017-11-06T00:28:30.481Z,99.99
2017-11-06T00:29:39.627Z,99.99
2017-11-06T00:30:48.817Z,99.99
2017-11-06T00:31:57.660Z,99.99
2017-11-06T00:33:06.502Z,99.99
2017-11-06T00:34:15.349Z,99.99
2017-11-06T00:35:24.441Z,99.99
2017-11-06T00:36:33.284Z,99.99
2017-11-06T00:37:42.127Z,99.99
2017-11-06T00:38:50.979Z,99.99
2017-11-06T00:39:59.812Z,99.99
2017-11-06T00:41:08.705Z,99.99
2017-11-06T00:42:17.548Z,99.99
2017-11-06T00:43:26.392Z,99.99
2017-11-06T00:44:35.240Z,99.99
2017-11-06T00:45:44.081Z,99.99
2017-11-06T00:46:53.033Z,99.99
2017-11-06T00:48:01.871Z,99.99
2017-11-06T00:49:11.071Z,99.99
2017-11-06T00:50:19.912Z,99.99
2017-11-06T00:51:28.756Z,99.99
2017-11-06T00:52:37.599Z,99.99
2017-11-06T00:53:46.441Z,99.99
2017-11-06T00:54:55.287Z,99.99
2017-11-06T00:56:04.129Z,99.99
2017-11-06T00:57:13.319Z,99.99
2017-11-06T00:58:22.314Z,99.99
2017-11-06T00:59:31.157Z,99.99
2017-11-06T01:00:40.001Z,99.99
2017-11-06T01:01:48.848Z,99.99
2017-11-06T01:02:57.688Z,99.99
2017-11-06T01:04:06.632Z,99.99
2017-11-06T01:05:15.473Z,99.99
2017-11-06T01:06:24.317Z,99.99
2017-11-06T01:07:33.157Z,99.99
2017-11-06T01:08:42.001Z,99.99
2017-11-06T01:09:50.994Z,99.99
2017-11-06T01:10:59.839Z,99.99
2017-11-06T01:12:08.676Z,99.99
2017-11-06T01:13:17.518Z,99.99
2017-11-06T01:14:26.361Z,99.99
2017-11-06T01:15:35.305Z,99.99
2017-11-06T01:16:44.144Z,99.99
2017-11-06T01:17:52.990Z,99.99
2017-11-06T01:19:01.834Z,99.99
2017-11-06T01:20:10.676Z,99.99
2017-11-06T01:21:19.519Z,99.99
2017-11-06T01:22:28.363Z,99.99
2017-11-06T01:23:37.208Z,99.99
2017-11-06T01:24:46.049Z,99.99
2017-11-06T01:25:54.894Z,99.99
2017-11-06T01:27:03.742Z,99.99
2017-11-06T01:28:12.581Z,99.99
2017-11-06T01:29:21.422Z,99.99
2017-11-06T01:30:30.266Z,99.99
2017-11-06T01:31:39.108Z,99.99
2017-11-06T01:32:48.450Z,99.99
2017-11-06T01:33:57.291Z,99.99
2017-11-06T01:35:06.135Z,99.99
2017-11-06T01:36:14.979Z,99.99
2017-11-06T01:37:23.821Z,99.99
2017-11-06T01:38:32.863Z,99.99
2017-11-06T01:39:41.708Z,99.99
2017-11-06T01:40:50.897Z,99.99
2017-11-06T01:41:59.739Z,99.99
2017-11-06T01:43:08.586Z,99.99
2017-11-06T01:44:17.576Z,99.99
2017-11-06T01:45:26.414Z,99.99
2017-11-06T01:46:35.256Z,99.99
2017-11-06T01:47:44.103Z,99.99
2017-11-06T01:48:52.943Z,99.99
2017-11-06T01:50:01.837Z,99.99
2017-11-06T01:51:10.679Z,99.99
2017-11-06T01:52:19.518Z,99.99
2017-11-06T01:53:28.363Z,99.99
2017-11-06T01:54:37.201Z,99.99
2017-11-06T01:55:46.196Z,99.99
2017-11-06T01:56:55.387Z,99.99
2017-11-06T01:58:04.229Z,99.99
2017-11-06T01:59:13.071Z,99.99
2017-11-06T02:00:21.958Z,99.99
2017-11-06T02:01:30.857Z,99.99
2017-11-06T02:02:39.706Z,99.99
2017-11-06T02:03:48.548Z,99.99
2017-11-06T02:04:57.399Z,99.99
2017-11-06T02:06:06.234Z,99.99
2017-11-06T02:07:15.280Z,99.99
2017-11-06T02:08:24.122Z,99.99
2017-11-06T02:09:32.966Z,99.99
2017-11-06T02:10:41.812Z,99.99
2017-11-06T02:11:50.654Z,99.99
2017-11-06T02:12:59.645Z,99.99
2017-11-06T02:14:08.491Z,99.99
2017-11-06T02:15:17.333Z,99.99
2017-11-06T02:16:26.175Z,99.99
2017-11-06T02:17:35.017Z,99.99
2017-11-06T02:18:43.956Z,99.99
2017-11-06T02:19:52.801Z,99.99
2017-11-06T02:21:01.644Z,99.99
2017-11-06T02:22:10.485Z,99.99
2017-11-06T02:23:19.330Z,99.99
2017-11-06T02:24:28.270Z,99.99
2017-11-06T02:25:37.111Z,99.99
2017-11-06T02:26:45.958Z,99.99
2017-11-06T02:27:54.794Z,99.99
2017-11-06T02:29:03.638Z,99.99
2017-11-06T02:30:12.533Z,99.99
2017-11-06T02:31:21.375Z,99.99
2017-11-06T02:32:30.215Z,99.99
2017-11-06T02:33:39.060Z,99.99
2017-11-06T02:34:47.902Z,99.99
2017-11-06T02:35:56.946Z,99.99
2017-11-06T02:37:05.800Z,99.99
2017-11-06T02:38:14.649Z,99.99
2017-11-06T02:39:23.838Z,99.99
2017-11-06T02:40:32.696Z,99.99
2017-11-06T02:41:41.625Z,99.99
2017-11-06T02:42:50.468Z,99.99
2017-11-06T02:43:59.310Z,99.99
2017-11-06T02:45:08.153Z,99.99
2017-11-06T02:46:16.993Z,99.99
2017-11-06T02:47:25.989Z,99.99
2017-11-06T02:48:34.832Z,99.99
2017-11-06T02:49:43.674Z,99.99
2017-11-06T02:50:52.517Z,99.99
2017-11-06T02:52:01.362Z,99.99
2017-11-06T02:53:10.252Z,99.99
2017-11-06T02:54:19.093Z,99.99
2017-11-06T02:55:27.934Z,99.99
2017-11-06T02:56:36.780Z,99.99
2017-11-06T02:57:45.624Z,99.99
2017-11-06T02:58:54.617Z,99.99
2017-11-06T03:00:03.810Z,99.99
2017-11-06T03:01:12.651Z,99.99
2017-11-06T03:02:21.494Z,99.99
2017-11-06T03:03:30.340Z,99.99
2017-11-06T03:04:39.232Z,99.99
2017-11-06T03:05:48.076Z,99.99
2017-11-06T03:06:56.919Z,99.99
2017-11-06T03:08:05.762Z,99.99
2017-11-06T03:09:14.605Z,99.99
2017-11-06T03:10:23.552Z,99.99
2017-11-06T03:11:32.393Z,99.99
2017-11-06T03:12:41.283Z,99.99
2017-11-06T03:13:50.125Z,99.99
2017-11-06T03:14:58.971Z,99.99
2017-11-06T03:16:07.865Z,99.99
2017-11-06T03:17:16.706Z,99.99
2017-11-06T03:18:25.550Z,99.99
2017-11-06T03:19:34.390Z,99.99
2017-11-06T03:20:43.233Z,99.99
2017-11-06T03:21:52.082Z,99.99
2017-11-06T03:23:00.923Z,99.99
2017-11-06T03:24:09.769Z,99.99
2017-11-06T03:25:18.613Z,99.99
2017-11-06T03:26:27.457Z,99.99
2017-11-06T03:27:36.304Z,99.99
2017-11-06T03:28:45.145Z,99.99
2017-11-06T03:29:53.987Z,99.99
2017-11-06T03:31:02.829Z,99.99
2017-11-06T03:32:11.680Z,99.99
2017-11-06T03:33:20.913Z,99.99
2017-11-06T03:34:29.760Z,99.99
2017-11-06T03:35:38.598Z,99.99
2017-11-06T03:36:47.440Z,99.99
2017-11-06T03:37:56.282Z,99.99
2017-11-06T03:39:05.577Z,99.99
2017-11-06T03:40:14.421Z,99.99
2017-11-06T03:41:23.259Z,99.99
2017-11-06T03:42:32.111Z,99.99
2017-11-06T03:43:40.943Z,99.99
2017-11-06T03:44:49.936Z,99.99
2017-11-06T03:45:58.777Z,99.99
2017-11-06T03:47:07.620Z,99.99
2017-11-06T03:48:16.460Z,99.99
2017-11-06T03:49:25.304Z,99.99
2017-11-06T03:50:34.536Z,99.99
2017-11-06T03:51:43.378Z,99.99
2017-11-06T03:52:52.220Z,99.99
2017-11-06T03:54:01.063Z,99.99
2017-11-06T03:55:09.908Z,99.99
2017-11-06T03:56:18.750Z,99.99
2017-11-06T03:57:27.593Z,99.99
2017-11-06T03:58:36.435Z,99.99
2017-11-06T03:59:45.281Z,99.99
2017-11-06T04:00:54.112Z,99.99
2017-11-06T04:02:03.105Z,99.99
2017-11-06T04:03:11.944Z,99.99
2017-11-06T04:04:20.790Z,99.99
2017-11-06T04:05:29.633Z,99.99
2017-11-06T04:06:38.480Z,99.99
2017-11-06T04:07:47.421Z,99.99
2017-11-06T04:08:56.262Z,99.99
2017-11-06T04:10:05.451Z,99.99
2017-11-06T04:11:14.292Z,99.99
2017-11-06T04:12:23.142Z,99.99
2017-11-06T04:13:32.472Z,99.99
2017-11-06T04:14:41.311Z,99.99
2017-11-06T04:15:50.153Z,99.99
2017-11-06T04:16:58.996Z,99.99
2017-11-06T04:18:07.844Z,99.99
2017-11-06T04:19:16.837Z,99.99
2017-11-06T04:20:26.026Z,99.99
2017-11-06T04:21:34.868Z,99.99
2017-11-06T04:22:43.713Z,99.99
2017-11-06T04:23:52.552Z,99.99
2017-11-06T04:25:01.996Z,99.99
2017-11-06T04:26:11.184Z,99.99
2017-11-06T04:27:20.028Z,99.99
2017-11-06T04:28:28.871Z,99.99
2017-11-06T04:29:37.713Z,99.99
2017-11-06T04:30:46.708Z,99.99
2017-11-06T04:31:55.549Z,99.99
2017-11-06T04:33:04.391Z,99.99
2017-11-06T04:34:13.231Z,99.99
2017-11-06T04:35:22.075Z,99.99
2017-11-06T04:36:31.171Z,99.99
2017-11-06T04:37:40.008Z,99.99
2017-11-06T04:38:48.856Z,99.99
2017-11-06T04:39:57.698Z,99.99
2017-11-06T04:41:06.545Z,99.99
2017-11-06T04:42:15.488Z,99.99
2017-11-06T04:43:24.334Z,99.99
2017-11-06T04:44:33.178Z,99.99
2017-11-06T04:45:42.023Z,99.99
2017-11-06T04:46:50.874Z,99.99
2017-11-06T04:47:59.862Z,99.99
2017-11-06T04:49:08.707Z,99.99
2017-11-06T04:50:17.548Z,99.99
2017-11-06T04:51:26.392Z,99.99
2017-11-06T04:52:35.236Z,99.99
2017-11-06T04:53:44.279Z,99.99
2017-11-06T04:54:53.123Z,99.99
2017-11-06T04:56:01.964Z,99.99
2017-11-06T04:57:10.807Z,99.99
2017-11-06T04:58:19.647Z,99.99
2017-11-06T04:59:28.590Z,99.99
2017-11-06T05:00:37.433Z,99.99
2017-11-06T05:01:46.277Z,99.99
2017-11-06T05:02:55.120Z,99.99
2017-11-06T05:04:03.964Z,99.99
2017-11-06T05:05:13.060Z,99.99
2017-11-06T05:06:22.250Z,99.99
2017-11-06T05:07:31.091Z,99.99
2017-11-06T05:08:39.965Z,99.99
2017-11-06T05:09:48.775Z,99.99
2017-11-06T05:10:57.619Z,99.99
2017-11-06T05:12:06.469Z,99.99
2017-11-06T05:13:15.309Z,99.99
2017-11-06T05:14:24.496Z,99.99
2017-11-06T05:15:33.340Z,99.99
2017-11-06T05:16:42.331Z,99.99
2017-11-06T05:17:51.173Z,99.99
2017-11-06T05:19:00.015Z,99.99
2017-11-06T05:20:08.858Z,99.99
2017-11-06T05:21:17.701Z,99.99
2017-11-06T05:22:26.598Z,99.99
2017-11-06T05:23:35.440Z,99.99
2017-11-06T05:24:44.282Z,99.99
2017-11-06T05:25:53.125Z,99.99
2017-11-06T05:27:01.967Z,99.99
2017-11-06T05:28:11.206Z,99.99
2017-11-06T05:29:20.047Z,99.99
2017-11-06T05:30:28.888Z,99.99
2017-11-06T05:31:37.734Z,99.99
2017-11-06T05:32:46.576Z,99.99
2017-11-06T05:33:55.722Z,99.99
2017-11-06T05:35:04.563Z,99.99
2017-11-06T05:36:13.404Z,99.99
2017-11-06T05:37:22.250Z,99.99
2017-11-06T05:38:31.091Z,99.99
2017-11-06T05:39:39.984Z,99.99
2017-11-06T05:40:48.825Z,99.99
2017-11-06T05:41:57.666Z,99.99
2017-11-06T05:43:06.508Z,99.99
2017-11-06T05:44:15.349Z,99.99
2017-11-06T05:45:24.290Z,99.99
2017-11-06T05:46:33.134Z,99.99
2017-11-06T05:47:41.985Z,99.99
2017-11-06T05:48:50.819Z,99.99
2017-11-06T05:49:59.662Z,99.99
2017-11-06T05:51:08.503Z,99.99
2017-11-06T05:52:17.351Z,99.99
2017-11-06T05:53:26.221Z,99.99
2017-11-06T05:54:35.066Z,99.99
2017-11-06T05:55:43.915Z,99.99
2017-11-06T05:56:52.759Z,99.99
2017-11-06T05:58:01.592Z,99.99
2017-11-06T05:59:10.431Z,99.99
2017-11-06T06:00:19.271Z,99.99
2017-11-06T06:01:28.116Z,99.99
2017-11-06T06:02:36.957Z,99.99
2017-11-06T06:03:45.799Z,99.99
2017-11-06T06:04:54.643Z,99.99
2017-11-06T06:06:03.491Z,99.99
2017-11-06T06:07:12.331Z,99.99
2017-11-06T06:08:21.175Z,99.99
2017-11-06T06:09:30.019Z,99.99
2017-11-06T06:10:38.862Z,99.99
2017-11-06T06:11:47.704Z,99.99
2017-11-06T06:12:56.549Z,99.99
2017-11-06T06:14:05.389Z,99.99
2017-11-06T06:15:14.592Z,99.99
2017-11-06T06:16:23.585Z,99.99
2017-11-06T06:17:32.433Z,99.99
2017-11-06T06:18:41.282Z,99.99
2017-11-06T06:19:50.122Z,99.99
2017-11-06T06:20:58.969Z,99.99
2017-11-06T06:22:07.962Z,99.99
2017-11-06T06:23:16.807Z,99.99
2017-11-06T06:24:25.660Z,99.99
2017-11-06T06:25:34.497Z,99.99
2017-11-06T06:26:43.339Z,99.99
2017-11-06T06:27:52.381Z,99.99
2017-11-06T06:29:01.236Z,99.99
2017-11-06T06:30:10.080Z,99.99
2017-11-06T06:31:19.019Z,99.99
2017-11-06T06:32:27.864Z,99.99
2017-11-06T06:33:36.811Z,99.99
2017-11-06T06:34:45.652Z,99.99
2017-11-06T06:35:54.495Z,99.99
2017-11-06T06:37:03.336Z,99.99
2017-11-06T06:38:12.184Z,99.99
2017-11-06T06:39:21.274Z,99.99
2017-11-06T06:40:30.119Z,99.99
2017-11-06T06:41:38.960Z,99.99
2017-11-06T06:42:48.149Z,99.99
2017-11-06T06:43:56.996Z,99.99
2017-11-06T06:45:05.889Z,99.99
2017-11-06T06:46:14.736Z,99.99
2017-11-06T06:47:23.581Z,99.99
2017-11-06T06:48:32.420Z,99.99
2017-11-06T06:49:41.266Z,99.99
2017-11-06T06:50:50.413Z,99.99
2017-11-06T06:51:59.256Z,99.99
2017-11-06T06:53:08.101Z,99.99
2017-11-06T06:54:16.948Z,99.99
2017-11-06T06:55:25.787Z,99.99
2017-11-06T06:56:34.679Z,99.99
2017-11-06T06:57:43.523Z,99.99
2017-11-06T06:58:52.368Z,99.99
2017-11-06T07:00:01.209Z,99.99
2017-11-06T07:01:10.051Z,99.99
2017-11-06T07:02:19.062Z,99.99
2017-11-06T07:03:27.898Z,99.99
2017-11-06T07:04:36.736Z,99.99
2017-11-06T07:05:45.581Z,99.99
2017-11-06T07:06:54.427Z,99.99
2017-11-06T07:08:03.616Z,99.99
2017-11-06T07:09:12.462Z,99.99
2017-11-06T07:10:21.302Z,99.99
2017-11-06T07:11:30.145Z,99.99
2017-11-06T07:12:38.990Z,99.99
2017-11-06T07:13:48.085Z,99.99
2017-11-06T07:14:56.928Z,99.99
2017-11-06T07:16:05.773Z,99.99
2017-11-06T07:17:14.618Z,99.99
2017-11-06T07:18:23.465Z,99.99
2017-11-06T07:19:32.310Z,99.99
2017-11-06T07:20:41.157Z,99.99
2017-11-06T07:21:50.005Z,99.99
2017-11-06T07:22:58.846Z,99.99
2017-11-06T07:24:07.688Z,99.99
2017-11-06T07:25:16.930Z,99.99
2017-11-06T07:26:25.772Z,99.99
2017-11-06T07:27:34.615Z,99.99
2017-11-06T07:28:43.459Z,99.99
2017-11-06T07:29:52.302Z,99.99
2017-11-06T07:31:01.196Z,99.99
2017-11-06T07:32:10.042Z,99.99
2017-11-06T07:33:18.893Z,99.99
2017-11-06T07:34:28.076Z,99.99
2017-11-06T07:35:36.919Z,99.99
2017-11-06T07:36:45.915Z,99.99
2017-11-06T07:37:54.758Z,99.99
2017-11-06T07:39:03.604Z,99.99
2017-11-06T07:40:12.449Z,99.99
2017-11-06T07:41:21.297Z,99.99
2017-11-06T07:42:30.356Z,99.99
2017-11-06T07:43:40.491Z,99.99
2017-11-06T07:44:49.845Z,99.99
2017-11-06T07:45:58.691Z,99.99
2017-11-06T07:47:07.537Z,99.99
2017-11-06T07:48:16.634Z,99.99
2017-11-06T07:49:25.480Z,99.99
2017-11-06T07:50:34.324Z,99.99
2017-11-06T07:51:43.519Z,99.99
2017-11-06T07:52:52.360Z,99.99
2017-11-06T07:54:01.803Z,99.99
2017-11-06T07:55:10.646Z,99.99
2017-11-06T07:56:19.490Z,99.99
2017-11-06T07:57:28.336Z,99.99
2017-11-06T07:58:37.181Z,99.99
2017-11-06T07:59:46.227Z,99.99
2017-11-06T08:00:55.072Z,99.99
2017-11-06T08:02:03.915Z,99.99
2017-11-06T08:03:12.759Z,99.99
2017-11-06T08:04:21.601Z,99.99
2017-11-06T08:05:30.901Z,99.99
2017-11-06T08:06:40.089Z,99.99
2017-11-06T08:07:48.934Z,99.99
2017-11-06T08:08:57.782Z,99.99
2017-11-06T08:10:06.628Z,99.99
2017-11-06T08:11:15.721Z,99.99
2017-11-06T08:12:24.565Z,99.99
2017-11-06T08:13:33.410Z,99.99
2017-11-06T08:14:42.605Z,99.99
2017-11-06T08:15:51.450Z,99.99
2017-11-06T08:17:00.298Z,99.99
2017-11-06T08:18:09.491Z,99.99
2017-11-06T08:19:18.337Z,99.99
2017-11-06T08:20:27.184Z,99.99
2017-11-06T08:21:36.029Z,99.99
2017-11-06T08:22:45.021Z,99.99
2017-11-06T08:23:53.864Z,99.77
2017-11-06T08:25:02.709Z,99.99
2017-11-06T08:26:11.550Z,99.99
2017-11-06T08:27:20.396Z,99.99
2017-11-06T08:28:29.486Z,99.99
2017-11-06T08:29:38.331Z,99.86
2017-11-06T08:30:47.177Z,99.99
2017-11-06T08:31:56.024Z,99.86
2017-11-06T08:33:04.862Z,99.99
2017-11-06T08:34:13.907Z,99.99
2017-11-06T08:35:22.754Z,99.99
2017-11-06T08:36:31.599Z,99.58
2017-11-06T08:37:40.441Z,99.67
2017-11-06T08:38:49.286Z,99.58
2017-11-06T08:39:58.229Z,99.1
2017-11-06T08:41:07.077Z,99.29
2017-11-06T08:42:15.914Z,99.29
2017-11-06T08:43:24.759Z,98.58
2017-11-06T08:44:33.611Z,98.49
2017-11-06T08:45:42.503Z,98.44
2017-11-06T08:46:51.350Z,98.3
2017-11-06T08:48:00.545Z,98.21
2017-11-06T08:49:09.389Z,98.49
2017-11-06T08:50:18.238Z,98.21
2017-11-06T08:51:27.626Z,98.39
2017-11-06T08:52:36.471Z,98.21
2017-11-06T08:53:45.316Z,98.68
2017-11-06T08:54:54.162Z,98.68
2017-11-06T08:56:03.015Z,98.21
2017-11-06T08:57:11.912Z,98.49
2017-11-06T08:58:20.751Z,97.73
2017-11-06T08:59:29.591Z,97.83
2017-11-06T09:00:38.442Z,97.73
2017-11-06T09:01:47.286Z,98.68
2017-11-06T09:02:56.381Z,98.87
2017-11-06T09:04:05.229Z,98.77
2017-11-06T09:05:14.084Z,98.68
2017-11-06T09:06:22.920Z,98.77
2017-11-06T09:07:31.765Z,98.21
2017-11-06T09:08:40.616Z,98.02
2017-11-06T09:09:49.458Z,98.3
2017-11-06T09:10:58.303Z,97.92
2017-11-06T09:12:07.150Z,97.88
2017-11-06T09:13:16.343Z,98.07
2017-11-06T09:14:25.340Z,97.97
2017-11-06T09:15:34.533Z,97.97
2017-11-06T09:16:43.429Z,98.07
2017-11-06T09:17:52.277Z,98.25
2017-11-06T09:19:01.121Z,98.07
2017-11-06T09:20:10.068Z,97.78
2017-11-06T09:21:18.915Z,98.07
2017-11-06T09:22:28.105Z,98.73
2017-11-06T09:23:36.949Z,98.35
2017-11-06T09:24:45.796Z,98.73
2017-11-06T09:25:54.793Z,98.92
2017-11-06T09:27:03.638Z,98.25
2017-11-06T09:28:12.483Z,98.73
2017-11-06T09:29:21.325Z,99.49
2017-11-06T09:30:30.172Z,98.68
2017-11-06T09:33:20.166Z,98.54
2017-11-06T09:34:29.013Z,98.54
2017-11-06T09:35:37.861Z,99.11
2017-11-06T09:36:46.951Z,98.73
2017-11-06T09:37:55.801Z,98.63
2017-11-06T09:39:04.638Z,98.78
2017-11-06T09:40:13.488Z,98.78
2017-11-06T09:41:22.337Z,98.92
2017-11-06T09:42:31.428Z,98.87
2017-11-06T09:43:40.274Z,98.68
2017-11-06T09:44:49.123Z,98.3
2017-11-06T09:45:57.967Z,98.59
2017-11-06T09:47:06.815Z,98.78
2017-11-06T09:48:15.720Z,98.02
2017-11-06T09:49:24.567Z,98.49
2017-11-06T09:50:33.413Z,98.97
2017-11-06T09:51:42.311Z,98.3
2017-11-06T09:52:51.505Z,98.4
2017-11-06T09:54:00.451Z,97.83
2017-11-06T09:55:09.295Z,98.02
2017-11-06T09:56:18.143Z,98.02
2017-11-06T09:57:26.992Z,98.02
2017-11-06T09:58:35.836Z,98.21
2017-11-06T09:59:44.784Z,98.02
2017-11-06T10:00:53.631Z,97.92
2017-11-06T10:02:02.478Z,98.3
2017-11-06T10:03:11.323Z,98.4
2017-11-06T10:04:20.170Z,98.07
2017-11-06T10:05:29.214Z,98.16
2017-11-06T10:06:38.055Z,98.16
2017-11-06T10:07:46.905Z,98.07
2017-11-06T10:08:55.746Z,98.64
2017-11-06T10:10:04.592Z,98.16
2017-11-06T10:11:13.489Z,98.35
2017-11-06T10:12:22.683Z,98.16
2017-11-06T10:13:31.531Z,97.78
2017-11-06T10:14:40.722Z,98.07
2017-11-06T10:15:49.569Z,98.45
2017-11-06T10:16:58.675Z,98.26
2017-11-06T10:18:07.519Z,98.07
2017-11-06T10:19:16.722Z,98.83
2017-11-06T10:20:25.569Z,98.83
2017-11-06T10:21:34.416Z,98.59
2017-11-06T10:22:43.363Z,99.07
2017-11-06T10:23:52.210Z,98.88
2017-11-06T10:25:01.054Z,98.97
2017-11-06T10:26:09.902Z,98.79
2017-11-06T10:27:18.749Z,99.35
2017-11-06T10:28:27.745Z,98.88
2017-11-06T10:29:36.594Z,98.5
2017-11-06T10:30:45.444Z,98.69
2017-11-06T10:31:54.293Z,98.69
2017-11-06T10:33:03.141Z,98.69
2017-11-06T10:34:12.038Z,99.07
2017-11-06T10:35:20.890Z,99.44
2017-11-06T10:36:29.736Z,99.35
2017-11-06T10:37:38.598Z,99.99
2017-11-06T10:38:47.797Z,99.99
2017-11-06T10:39:56.751Z,99.99
2017-11-06T10:41:05.589Z,99.99
2017-11-06T10:42:14.436Z,99.99
2017-11-06T10:43:23.287Z,99.99
2017-11-06T10:44:32.134Z,99.99
2017-11-06T10:45:41.031Z,99.99
2017-11-06T10:46:49.876Z,99.99
2017-11-06T10:47:58.724Z,99.99
2017-11-06T10:49:07.574Z,99.99
2017-11-06T10:50:16.429Z,99.99
2017-11-06T10:51:25.372Z,99.99
2017-11-06T10:52:34.220Z,99.99
2017-11-06T10:53:43.069Z,99.99
2017-11-06T10:54:51.911Z,99.99
2017-11-06T10:56:00.759Z,99.99
2017-11-06T10:57:09.661Z,99.99
2017-11-06T10:58:18.506Z,99.99
2017-11-06T10:59:27.357Z,99.99
2017-11-06T11:00:36.207Z,99.99
2017-11-06T11:01:45.053Z,99.99
2017-11-06T11:02:53.901Z,99.99
2017-11-06T11:04:02.750Z,99.99
2017-11-06T11:05:11.944Z,99.99
2017-11-06T11:06:20.792Z,99.99
2017-11-06T11:07:29.643Z,99.99
2017-11-06T11:08:38.656Z,99.99
2017-11-06T11:09:47.494Z,99.99
2017-11-06T11:10:56.345Z,99.99
2017-11-06T11:12:05.193Z,99.99
2017-11-06T11:13:14.043Z,99.99
2017-11-06T11:14:22.942Z,99.99
2017-11-06T11:15:31.793Z,99.99
2017-11-06T11:16:40.639Z,99.99
2017-11-06T11:17:49.486Z,99.99
2017-11-06T11:18:58.334Z,99.99
2017-11-06T11:20:07.586Z,99.99
2017-11-06T11:21:16.433Z,99.99
2017-11-06T11:22:25.283Z,99.99
2017-11-06T11:23:34.133Z,99.99
2017-11-06T11:24:42.985Z,99.99
2017-11-06T11:25:51.979Z,99.99
2017-11-06T11:27:00.829Z,99.99
2017-11-06T11:28:09.681Z,99.99
2017-11-06T11:29:18.539Z,99.99
2017-11-06T11:30:27.378Z,99.99
2017-11-06T11:31:36.427Z,99.99
2017-11-06T11:32:45.276Z,99.99
2017-11-06T11:33:54.470Z,99.99
2017-11-06T11:35:03.318Z,99.99
2017-11-06T11:36:12.510Z,99.99
2017-11-06T11:37:21.459Z,99.99
2017-11-06T11:38:30.315Z,99.99
2017-11-06T11:39:39.162Z,99.99
2017-11-06T11:40:48.009Z,99.99
2017-11-06T11:41:56.858Z,99.99
2017-11-06T11:43:05.959Z,99.99
2017-11-06T11:44:14.809Z,99.99
2017-11-06T11:45:23.657Z,99.99
2017-11-06T11:46:32.505Z,99.99
2017-11-06T11:47:41.353Z,99.99
2017-11-06T11:48:50.359Z,99.99
2017-11-06T11:49:59.203Z,99.99
2017-11-06T11:51:08.050Z,99.99
2017-11-06T11:52:16.900Z,99.99
2017-11-06T11:53:25.768Z,99.99
2017-11-06T11:54:34.723Z,99.99
2017-11-06T11:55:43.580Z,99.99
2017-11-06T11:56:52.426Z,99.99
2017-11-06T11:58:01.275Z,99.99
2017-11-06T11:59:10.125Z,99.99
2017-11-06T12:00:19.072Z,99.99
2017-11-06T12:01:27.921Z,99.99
2017-11-06T12:02:36.775Z,99.99
2017-11-06T12:03:45.626Z,99.99
2017-11-06T12:04:54.822Z,99.99
2017-11-06T12:06:03.729Z,99.99
2017-11-06T12:07:12.580Z,99.99
2017-11-06T12:08:21.428Z,99.99
2017-11-06T12:09:30.310Z,99.99
2017-11-06T12:10:39.183Z,99.99
2017-11-06T12:11:48.289Z,99.99
2017-11-06T12:12:57.480Z,99.99
2017-11-06T12:14:06.346Z,99.99
2017-11-06T12:15:15.196Z,99.99
2017-11-06T12:16:24.079Z,99.99
2017-11-06T12:17:32.979Z,99.99
2017-11-06T12:18:41.853Z,99.99
2017-11-06T12:19:50.702Z,99.99
2017-11-06T12:20:59.554Z,99.99
2017-11-06T12:22:08.452Z,99.99
2017-11-06T12:23:17.659Z,99.99
2017-11-06T12:24:26.507Z,99.99
2017-11-06T12:25:35.353Z,99.99
2017-11-06T12:26:44.222Z,99.99
2017-11-06T12:27:53.316Z,99.99
2017-11-06T12:29:02.319Z,99.99
2017-11-06T12:30:11.220Z,99.99
2017-11-06T12:31:20.417Z,99.99
2017-11-06T12:32:29.266Z,99.99
2017-11-06T12:33:38.115Z,99.99
2017-11-06T12:34:47.035Z,99.99
2017-11-06T12:35:56.233Z,99.99
2017-11-06T12:37:05.077Z,99.99
2017-11-06T12:38:13.985Z,99.99
2017-11-06T12:39:22.854Z,99.99
2017-11-06T12:40:31.760Z,99.99
2017-11-06T12:41:40.612Z,99.99
2017-11-06T12:42:49.462Z,99.99
2017-11-06T12:43:58.311Z,99.99
2017-11-06T12:45:07.527Z,99.99
2017-11-06T12:46:16.627Z,99.99
2017-11-06T12:47:25.476Z,99.99
2017-11-06T12:48:34.327Z,99.99
2017-11-06T12:49:43.180Z,99.99
2017-11-06T12:50:52.073Z,99.99
2017-11-06T12:52:01.089Z,99.99
2017-11-06T12:53:09.958Z,99.99
2017-11-06T12:54:18.821Z,99.99
2017-11-06T12:55:27.703Z,99.99
2017-11-06T12:56:36.557Z,99.99
2017-11-06T12:57:45.709Z,99.99
2017-11-06T12:58:54.600Z,99.99
2017-11-06T13:00:03.453Z,99.99
2017-11-06T13:01:12.582Z,99.99
2017-11-06T13:02:21.433Z,99.99
2017-11-06T13:03:30.433Z,99.99
2017-11-06T13:04:39.288Z,99.99
2017-11-06T13:05:48.135Z,99.99
2017-11-06T13:06:56.982Z,99.99
2017-11-06T13:08:05.831Z,99.99
2017-11-06T13:09:15.126Z,99.99
2017-11-06T13:10:23.979Z,99.99
2017-11-06T13:11:32.832Z,99.99
2017-11-06T13:12:41.680Z,99.99
2017-11-06T13:13:50.535Z,99.99
2017-11-06T13:14:59.874Z,99.99
2017-11-06T13:16:09.074Z,99.99
2017-11-06T13:17:17.928Z,99.99
2017-11-06T13:18:26.779Z,99.99
2017-11-06T13:19:35.631Z,99.99
2017-11-06T13:20:44.829Z,99.99
2017-11-06T13:21:53.679Z,99.99
2017-11-06T13:23:02.528Z,99.99
2017-11-06T13:24:11.382Z,99.99
2017-11-06T13:25:20.239Z,99.99
2017-11-06T13:26:29.133Z,99.99
2017-11-06T13:27:37.986Z,99.99
2017-11-06T13:28:46.840Z,99.99
2017-11-06T13:29:55.691Z,99.99
2017-11-06T13:31:04.549Z,99.99
2017-11-06T13:32:13.404Z,99.99
2017-11-06T13:33:22.605Z,99.99
2017-11-06T13:34:31.460Z,99.99
2017-11-06T13:35:40.352Z,99.99
2017-11-06T13:36:49.205Z,99.99
2017-11-06T13:37:58.112Z,99.99
2017-11-06T13:39:06.979Z,99.99
2017-11-06T13:40:15.829Z,99.99
2017-11-06T13:41:24.679Z,99.99
2017-11-06T13:42:33.541Z,99.9
2017-11-06T13:43:42.394Z,99.61
2017-11-06T13:44:51.249Z,99.99
2017-11-06T13:46:00.795Z,99.99
2017-11-06T13:47:09.647Z,99.99
2017-11-06T13:48:18.502Z,99.66
2017-11-06T13:49:27.358Z,99.95
2017-11-06T13:50:36.217Z,99.95
2017-11-06T13:51:45.077Z,99.99
2017-11-06T13:52:54.275Z,99.99
2017-11-06T13:54:03.128Z,99.99
2017-11-06T13:55:11.981Z,99.08
2017-11-06T13:56:20.838Z,97.47
2017-11-06T13:57:29.892Z,99.99
2017-11-06T13:58:38.750Z,99.95
2017-11-06T13:59:47.605Z,99.99
2017-11-06T14:00:56.459Z,99.99
2017-11-06T14:02:05.313Z,98.71
2017-11-06T14:03:14.436Z,98.71
2017-11-06T14:04:23.289Z,97.85
2017-11-06T14:05:32.490Z,98.9
2017-11-06T14:06:41.343Z,98.8
2017-11-06T14:07:50.198Z,98.52
2017-11-06T14:08:59.252Z,98.61
2017-11-06T14:10:08.123Z,97.08
2017-11-06T14:11:16.974Z,96.61
2017-11-06T14:12:25.825Z,95.56
2017-11-06T14:13:34.684Z,95.94
2017-11-06T14:14:43.831Z,96.22
2017-11-06T14:15:52.688Z,97.66
2017-11-06T14:17:01.541Z,97.18
2017-11-06T14:18:10.755Z,97.89
2017-11-06T14:19:19.609Z,98.18
2017-11-06T14:20:28.861Z,98.94
2017-11-06T14:21:37.712Z,98.47
2017-11-06T14:22:46.563Z,99.23
2017-11-06T14:23:55.421Z,99.56
2017-11-06T14:25:04.276Z,99.99
2017-11-06T14:26:13.276Z,99.99
2017-11-06T14:27:22.127Z,99.99
2017-11-06T14:28:30.978Z,99.99
2017-11-06T14:29:39.828Z,99.99
2017-11-06T14:30:48.778Z,99.99
2017-11-06T14:31:57.790Z,99.99
2017-11-06T14:33:06.645Z,99.99
2017-11-06T14:34:15.546Z,99.99
2017-11-06T14:35:24.399Z,99.99
2017-11-06T14:36:33.253Z,99.99
2017-11-06T14:37:42.105Z,99.99
2017-11-06T14:38:51.466Z,99.99
2017-11-06T14:40:00.672Z,99.99
2017-11-06T14:41:09.522Z,99.99
2017-11-06T14:42:18.375Z,99.99
2017-11-06T14:43:27.359Z,99.99
2017-11-06T14:44:36.240Z,99.99
2017-11-06T14:45:45.227Z,99.99
2017-11-06T14:46:54.110Z,99.99
2017-11-06T14:48:02.972Z,99.99
2017-11-06T14:49:11.832Z,99.99
2017-11-06T14:50:20.708Z,99.99